sensor_id;sensor_type;location;lat;lon;timestamp;P1;durP1;ratioP1;P2;durP2;ratioP2
74894;SDS011;63447;49.446;8.666;2022-10-22T00:02:08;4.78;;;1.63;;
74894;SDS011;63447;49.446;8.666;2022-10-22T00:04:39;4.03;;;1.50;;
74894;SDS011;63447;49.446;8.666;2022-10-22T00:07:05;5.18;;;1.40;;
74894;SDS011;63447;49.446;8.666;2022-10-22T00:09:30;4.13;;;1.30;;
74894;SDS011;63447;49.446;8.666;2022-10-22T00:11:58;5.50;;;1.57;;
74894;SDS011;63447;49.446;8.666;2022-10-22T00:14:26;4.60;;;1.45;;
74894;SDS011;63447;49.446;8.666;2022-10-22T00:16:53;4.88;;;1.55;;
74894;SDS011;63447;49.446;8.666;2022-10-22T00:19:20;4.07;;;1.33;;
74894;SDS011;63447;49.446;8.666;2022-10-22T00:21:45;4.75;;;1.75;;
74894;SDS011;63447;49.446;8.666;2022-10-22T00:24:11;3.87;;;1.50;;
74894;SDS011;63447;49.446;8.666;2022-10-22T00:26:36;3.87;;;1.30;;
74894;SDS011;63447;49.446;8.666;2022-10-22T00:29:04;4.68;;;1.50;;
74894;SDS011;63447;49.446;8.666;2022-10-22T00:31:32;7.38;;;1.65;;
74894;SDS011;63447;49.446;8.666;2022-10-22T00:33:59;5.07;;;1.50;;
74894;SDS011;63447;49.446;8.666;2022-10-22T00:36:26;5.15;;;1.52;;
74894;SDS011;63447;49.446;8.666;2022-10-22T00:38:54;5.53;;;1.67;;
74894;SDS011;63447;49.446;8.666;2022-10-22T00:41:21;5.10;;;1.40;;
74894;SDS011;63447;49.446;8.666;2022-10-22T00:44:00;5.45;;;1.75;;
74894;SDS011;63447;49.446;8.666;2022-10-22T00:46:28;5.32;;;1.45;;
74894;SDS011;63447;49.446;8.666;2022-10-22T00:48:54;5.45;;;1.60;;
74894;SDS011;63447;49.446;8.666;2022-10-22T00:51:22;6.05;;;1.23;;
74894;SDS011;63447;49.446;8.666;2022-10-22T00:53:53;4.65;;;1.13;;
74894;SDS011;63447;49.446;8.666;2022-10-22T00:56:21;4.65;;;1.17;;
74894;SDS011;63447;49.446;8.666;2022-10-22T00:58:52;4.50;;;1.20;;
74894;SDS011;63447;49.446;8.666;2022-10-22T01:01:22;3.35;;;1.15;;
74894;SDS011;63447;49.446;8.666;2022-10-22T01:03:49;4.07;;;1.30;;
74894;SDS011;63447;49.446;8.666;2022-10-22T01:06:27;3.30;;;1.10;;
74894;SDS011;63447;49.446;8.666;2022-10-22T01:24:59;3.50;;;1.00;;
74894;SDS011;63447;49.446;8.666;2022-10-22T01:30:13;4.53;;;1.33;;
74894;SDS011;63447;49.446;8.666;2022-10-22T01:32:42;3.10;;;0.80;;
74894;SDS011;63447;49.446;8.666;2022-10-22T01:35:13;3.35;;;0.80;;
74894;SDS011;63447;49.446;8.666;2022-10-22T01:37:47;4.97;;;1.00;;
74894;SDS011;63447;49.446;8.666;2022-10-22T01:40:16;3.20;;;0.93;;
74894;SDS011;63447;49.446;8.666;2022-10-22T01:42:53;4.47;;;0.98;;
74894;SDS011;63447;49.446;8.666;2022-10-22T01:45:32;3.50;;;0.88;;
74894;SDS011;63447;49.446;8.666;2022-10-22T01:53:32;3.65;;;0.80;;
74894;SDS011;63447;49.446;8.666;2022-10-22T01:59:03;4.90;;;1.20;;
74894;SDS011;63447;49.446;8.666;2022-10-22T02:04:22;4.00;;;0.98;;
74894;SDS011;63447;49.446;8.666;2022-10-22T02:06:54;3.00;;;1.08;;
74894;SDS011;63447;49.446;8.666;2022-10-22T02:09:23;2.90;;;0.73;;
74894;SDS011;63447;49.446;8.666;2022-10-22T02:11:52;5.22;;;1.08;;
74894;SDS011;63447;49.446;8.666;2022-10-22T02:14:18;3.08;;;0.73;;
74894;SDS011;63447;49.446;8.666;2022-10-22T02:16:48;3.83;;;0.90;;
74894;SDS011;63447;49.446;8.666;2022-10-22T02:19:16;4.00;;;0.70;;
74894;SDS011;63447;49.446;8.666;2022-10-22T02:21:50;3.40;;;0.77;;
74894;SDS011;63447;49.446;8.666;2022-10-22T02:24:19;3.42;;;0.65;;
74894;SDS011;63447;49.446;8.666;2022-10-22T02:29:39;3.28;;;1.10;;
74894;SDS011;63447;49.446;8.666;2022-10-22T02:32:10;5.10;;;1.05;;
74894;SDS011;63447;49.446;8.666;2022-10-22T02:34:40;3.13;;;0.90;;
74894;SDS011;63447;49.446;8.666;2022-10-22T02:37:05;3.55;;;1.35;;
74894;SDS011;63447;49.446;8.666;2022-10-22T02:39:33;3.08;;;0.90;;
74894;SDS011;63447;49.446;8.666;2022-10-22T02:42:01;3.20;;;0.70;;
74894;SDS011;63447;49.446;8.666;2022-10-22T02:44:26;3.72;;;0.98;;
74894;SDS011;63447;49.446;8.666;2022-10-22T02:46:52;4.30;;;0.98;;
74894;SDS011;63447;49.446;8.666;2022-10-22T02:49:17;3.03;;;0.80;;
74894;SDS011;63447;49.446;8.666;2022-10-22T02:51:45;3.00;;;0.88;;
74894;SDS011;63447;49.446;8.666;2022-10-22T02:54:12;3.33;;;0.90;;
74894;SDS011;63447;49.446;8.666;2022-10-22T02:56:40;4.60;;;1.10;;
74894;SDS011;63447;49.446;8.666;2022-10-22T02:59:07;3.92;;;0.80;;
74894;SDS011;63447;49.446;8.666;2022-10-22T03:01:32;4.30;;;0.80;;
74894;SDS011;63447;49.446;8.666;2022-10-22T03:03:58;2.90;;;0.73;;
74894;SDS011;63447;49.446;8.666;2022-10-22T03:06:28;4.03;;;0.82;;
74894;SDS011;63447;49.446;8.666;2022-10-22T03:08:53;3.87;;;1.00;;
74894;SDS011;63447;49.446;8.666;2022-10-22T03:11:19;2.20;;;0.50;;
74894;SDS011;63447;49.446;8.666;2022-10-22T03:13:44;3.73;;;0.70;;
74894;SDS011;63447;49.446;8.666;2022-10-22T03:16:14;2.80;;;0.68;;
74894;SDS011;63447;49.446;8.666;2022-10-22T03:18:44;5.10;;;0.90;;
74894;SDS011;63447;49.446;8.666;2022-10-22T03:21:14;2.33;;;0.60;;
74894;SDS011;63447;49.446;8.666;2022-10-22T03:23:48;2.30;;;0.63;;
74894;SDS011;63447;49.446;8.666;2022-10-22T03:26:14;3.42;;;1.00;;
74894;SDS011;63447;49.446;8.666;2022-10-22T03:28:41;2.50;;;0.88;;
74894;SDS011;63447;49.446;8.666;2022-10-22T03:31:14;3.95;;;0.75;;
74894;SDS011;63447;49.446;8.666;2022-10-22T03:33:39;3.55;;;0.60;;
74894;SDS011;63447;49.446;8.666;2022-10-22T03:36:07;2.47;;;0.57;;
74894;SDS011;63447;49.446;8.666;2022-10-22T03:38:37;1.48;;;0.47;;
74894;SDS011;63447;49.446;8.666;2022-10-22T03:41:06;2.65;;;0.60;;
74894;SDS011;63447;49.446;8.666;2022-10-22T03:43:34;2.00;;;0.50;;
74894;SDS011;63447;49.446;8.666;2022-10-22T03:46:04;2.75;;;0.70;;
74894;SDS011;63447;49.446;8.666;2022-10-22T03:48:30;2.73;;;0.50;;
74894;SDS011;63447;49.446;8.666;2022-10-22T03:50:55;4.20;;;0.77;;
74894;SDS011;63447;49.446;8.666;2022-10-22T03:53:22;2.90;;;0.80;;
74894;SDS011;63447;49.446;8.666;2022-10-22T03:55:48;3.67;;;0.60;;
74894;SDS011;63447;49.446;8.666;2022-10-22T03:58:13;3.15;;;0.70;;
74894;SDS011;63447;49.446;8.666;2022-10-22T04:00:41;2.92;;;0.70;;
74894;SDS011;63447;49.446;8.666;2022-10-22T04:03:09;2.55;;;0.60;;
74894;SDS011;63447;49.446;8.666;2022-10-22T04:05:34;2.53;;;0.70;;
74894;SDS011;63447;49.446;8.666;2022-10-22T04:08:02;2.60;;;0.80;;
74894;SDS011;63447;49.446;8.666;2022-10-22T04:10:27;3.13;;;0.63;;
74894;SDS011;63447;49.446;8.666;2022-10-22T04:12:55;2.88;;;0.60;;
74894;SDS011;63447;49.446;8.666;2022-10-22T04:15:23;3.15;;;0.68;;
74894;SDS011;63447;49.446;8.666;2022-10-22T04:17:52;3.10;;;0.70;;
74894;SDS011;63447;49.446;8.666;2022-10-22T04:20:17;2.58;;;0.60;;
74894;SDS011;63447;49.446;8.666;2022-10-22T04:22:47;2.92;;;0.70;;
74894;SDS011;63447;49.446;8.666;2022-10-22T04:25:12;2.50;;;0.60;;
74894;SDS011;63447;49.446;8.666;2022-10-22T04:27:37;4.00;;;0.93;;
74894;SDS011;63447;49.446;8.666;2022-10-22T04:30:03;3.80;;;0.80;;
74894;SDS011;63447;49.446;8.666;2022-10-22T04:32:33;3.00;;;0.75;;
74894;SDS011;63447;49.446;8.666;2022-10-22T04:35:01;3.50;;;0.85;;
74894;SDS011;63447;49.446;8.666;2022-10-22T04:37:26;3.55;;;0.80;;
74894;SDS011;63447;49.446;8.666;2022-10-22T04:39:52;2.65;;;0.70;;
74894;SDS011;63447;49.446;8.666;2022-10-22T04:42:17;3.03;;;0.90;;
74894;SDS011;63447;49.446;8.666;2022-10-22T04:44:42;3.97;;;0.90;;
74894;SDS011;63447;49.446;8.666;2022-10-22T04:47:10;4.22;;;0.98;;
74894;SDS011;63447;49.446;8.666;2022-10-22T04:49:38;3.03;;;1.00;;
74894;SDS011;63447;49.446;8.666;2022-10-22T04:52:06;2.88;;;0.73;;
74894;SDS011;63447;49.446;8.666;2022-10-22T04:54:36;3.60;;;0.70;;
74894;SDS011;63447;49.446;8.666;2022-10-22T04:57:04;3.22;;;0.80;;
74894;SDS011;63447;49.446;8.666;2022-10-22T04:59:29;3.70;;;0.85;;
74894;SDS011;63447;49.446;8.666;2022-10-22T05:01:54;2.57;;;0.70;;
74894;SDS011;63447;49.446;8.666;2022-10-22T05:04:24;3.13;;;0.70;;
74894;SDS011;63447;49.446;8.666;2022-10-22T05:06:50;2.43;;;0.77;;
74894;SDS011;63447;49.446;8.666;2022-10-22T05:09:16;5.50;;;0.90;;
74894;SDS011;63447;49.446;8.666;2022-10-22T05:11:43;2.50;;;0.70;;
74894;SDS011;63447;49.446;8.666;2022-10-22T05:14:14;4.15;;;0.85;;
74894;SDS011;63447;49.446;8.666;2022-10-22T05:16:44;4.93;;;0.80;;
74894;SDS011;63447;49.446;8.666;2022-10-22T05:19:17;2.65;;;0.70;;
74894;SDS011;63447;49.446;8.666;2022-10-22T05:21:51;3.72;;;0.90;;
74894;SDS011;63447;49.446;8.666;2022-10-22T05:24:20;2.75;;;0.80;;
74894;SDS011;63447;49.446;8.666;2022-10-22T05:26:53;2.65;;;0.80;;
74894;SDS011;63447;49.446;8.666;2022-10-22T05:29:21;2.70;;;0.70;;
74894;SDS011;63447;49.446;8.666;2022-10-22T05:31:47;4.00;;;0.80;;
74894;SDS011;63447;49.446;8.666;2022-10-22T05:34:15;2.70;;;0.88;;
74894;SDS011;63447;49.446;8.666;2022-10-22T05:36:41;2.03;;;0.70;;
74894;SDS011;63447;49.446;8.666;2022-10-22T05:39:06;2.20;;;0.60;;
74894;SDS011;63447;49.446;8.666;2022-10-22T05:41:34;2.70;;;0.70;;
74894;SDS011;63447;49.446;8.666;2022-10-22T05:44:00;2.55;;;0.70;;
74894;SDS011;63447;49.446;8.666;2022-10-22T05:46:26;4.53;;;0.93;;
74894;SDS011;63447;49.446;8.666;2022-10-22T05:48:56;2.33;;;0.70;;
74894;SDS011;63447;49.446;8.666;2022-10-22T05:51:32;2.53;;;0.60;;
74894;SDS011;63447;49.446;8.666;2022-10-22T05:53:59;2.28;;;0.70;;
74894;SDS011;63447;49.446;8.666;2022-10-22T05:56:29;2.25;;;0.68;;
74894;SDS011;63447;49.446;8.666;2022-10-22T05:58:58;2.70;;;0.70;;
74894;SDS011;63447;49.446;8.666;2022-10-22T06:01:29;4.72;;;1.10;;
74894;SDS011;63447;49.446;8.666;2022-10-22T06:03:56;3.58;;;1.10;;
74894;SDS011;63447;49.446;8.666;2022-10-22T06:08:54;3.35;;;0.90;;
74894;SDS011;63447;49.446;8.666;2022-10-22T06:11:24;2.92;;;0.82;;
74894;SDS011;63447;49.446;8.666;2022-10-22T06:13:54;3.05;;;0.82;;
74894;SDS011;63447;49.446;8.666;2022-10-22T06:16:22;3.53;;;0.90;;
74894;SDS011;63447;49.446;8.666;2022-10-22T06:18:50;5.32;;;1.13;;
74894;SDS011;63447;49.446;8.666;2022-10-22T06:21:17;4.10;;;0.85;;
74894;SDS011;63447;49.446;8.666;2022-10-22T06:23:45;3.20;;;0.75;;
74894;SDS011;63447;49.446;8.666;2022-10-22T06:26:15;3.58;;;0.98;;
74894;SDS011;63447;49.446;8.666;2022-10-22T06:28:42;2.47;;;0.80;;
74894;SDS011;63447;49.446;8.666;2022-10-22T06:31:12;2.67;;;0.98;;
74894;SDS011;63447;49.446;8.666;2022-10-22T06:33:40;2.83;;;0.70;;
74894;SDS011;63447;49.446;8.666;2022-10-22T06:36:16;3.67;;;0.88;;
74894;SDS011;63447;49.446;8.666;2022-10-22T06:38:43;3.78;;;0.80;;
74894;SDS011;63447;49.446;8.666;2022-10-22T06:41:13;4.10;;;1.02;;
74894;SDS011;63447;49.446;8.666;2022-10-22T06:43:40;3.70;;;0.80;;
74894;SDS011;63447;49.446;8.666;2022-10-22T06:46:11;3.25;;;0.90;;
74894;SDS011;63447;49.446;8.666;2022-10-22T06:48:41;3.42;;;0.90;;
74894;SDS011;63447;49.446;8.666;2022-10-22T06:51:09;3.88;;;0.90;;
74894;SDS011;63447;49.446;8.666;2022-10-22T06:53:38;3.22;;;0.82;;
74894;SDS011;63447;49.446;8.666;2022-10-22T06:56:09;4.05;;;1.05;;
74894;SDS011;63447;49.446;8.666;2022-10-22T06:58:37;3.65;;;1.10;;
74894;SDS011;63447;49.446;8.666;2022-10-22T07:01:06;5.18;;;1.30;;
74894;SDS011;63447;49.446;8.666;2022-10-22T07:03:35;3.63;;;0.90;;
74894;SDS011;63447;49.446;8.666;2022-10-22T07:06:01;4.15;;;0.90;;
74894;SDS011;63447;49.446;8.666;2022-10-22T07:08:29;3.75;;;0.75;;
74894;SDS011;63447;49.446;8.666;2022-10-22T07:11:05;3.97;;;1.10;;
74894;SDS011;63447;49.446;8.666;2022-10-22T07:13:35;2.65;;;0.70;;
74894;SDS011;63447;49.446;8.666;2022-10-22T07:16:00;3.47;;;0.80;;
74894;SDS011;63447;49.446;8.666;2022-10-22T07:18:26;3.28;;;0.80;;
74894;SDS011;63447;49.446;8.666;2022-10-22T07:20:54;4.15;;;0.75;;
74894;SDS011;63447;49.446;8.666;2022-10-22T07:23:19;3.20;;;1.00;;
74894;SDS011;63447;49.446;8.666;2022-10-22T07:25:45;2.65;;;0.63;;
74894;SDS011;63447;49.446;8.666;2022-10-22T07:28:10;2.50;;;0.73;;
74894;SDS011;63447;49.446;8.666;2022-10-22T07:30:36;2.20;;;0.70;;
74894;SDS011;63447;49.446;8.666;2022-10-22T07:33:05;2.63;;;0.77;;
74894;SDS011;63447;49.446;8.666;2022-10-22T07:35:35;2.85;;;0.70;;
74894;SDS011;63447;49.446;8.666;2022-10-22T07:38:02;3.83;;;1.45;;
74894;SDS011;63447;49.446;8.666;2022-10-22T07:40:30;3.05;;;0.93;;
74894;SDS011;63447;49.446;8.666;2022-10-22T07:42:58;3.13;;;0.80;;
74894;SDS011;63447;49.446;8.666;2022-10-22T07:45:26;2.63;;;0.80;;
74894;SDS011;63447;49.446;8.666;2022-10-22T07:47:52;4.22;;;0.90;;
74894;SDS011;63447;49.446;8.666;2022-10-22T07:50:17;3.37;;;1.00;;
74894;SDS011;63447;49.446;8.666;2022-10-22T07:52:43;3.50;;;0.82;;
74894;SDS011;63447;49.446;8.666;2022-10-22T07:55:13;3.58;;;0.93;;
74894;SDS011;63447;49.446;8.666;2022-10-22T07:57:39;3.90;;;1.00;;
74894;SDS011;63447;49.446;8.666;2022-10-22T08:00:07;3.20;;;1.00;;
74894;SDS011;63447;49.446;8.666;2022-10-22T08:02:33;3.58;;;1.60;;
74894;SDS011;63447;49.446;8.666;2022-10-22T08:04:59;2.95;;;0.80;;
74894;SDS011;63447;49.446;8.666;2022-10-22T08:07:24;2.27;;;0.70;;
74894;SDS011;63447;49.446;8.666;2022-10-22T08:09:52;2.35;;;0.70;;
74894;SDS011;63447;49.446;8.666;2022-10-22T08:12:20;4.40;;;0.90;;
74894;SDS011;63447;49.446;8.666;2022-10-22T08:14:47;3.97;;;0.90;;
74894;SDS011;63447;49.446;8.666;2022-10-22T08:17:13;1.87;;;0.63;;
74894;SDS011;63447;49.446;8.666;2022-10-22T08:19:38;3.70;;;0.60;;
74894;SDS011;63447;49.446;8.666;2022-10-22T08:22:04;2.23;;;0.60;;
74894;SDS011;63447;49.446;8.666;2022-10-22T08:24:34;2.22;;;0.60;;
74894;SDS011;63447;49.446;8.666;2022-10-22T08:27:04;4.68;;;0.60;;
74894;SDS011;63447;49.446;8.666;2022-10-22T08:29:29;1.88;;;0.50;;
74894;SDS011;63447;49.446;8.666;2022-10-22T08:31:54;2.17;;;0.60;;
74894;SDS011;63447;49.446;8.666;2022-10-22T08:34:22;2.42;;;0.60;;
74894;SDS011;63447;49.446;8.666;2022-10-22T08:36:47;2.80;;;0.80;;
74894;SDS011;63447;49.446;8.666;2022-10-22T08:39:17;2.17;;;0.60;;
74894;SDS011;63447;49.446;8.666;2022-10-22T08:41:46;2.13;;;0.60;;
74894;SDS011;63447;49.446;8.666;2022-10-22T08:49:38;3.13;;;0.60;;
74894;SDS011;63447;49.446;8.666;2022-10-22T08:52:06;2.72;;;0.70;;
74894;SDS011;63447;49.446;8.666;2022-10-22T08:54:56;2.92;;;0.50;;
74894;SDS011;63447;49.446;8.666;2022-10-22T09:06:11;3.88;;;0.60;;
74894;SDS011;63447;49.446;8.666;2022-10-22T09:08:40;2.05;;;0.50;;
74894;SDS011;63447;49.446;8.666;2022-10-22T09:13:38;2.60;;;0.60;;
74894;SDS011;63447;49.446;8.666;2022-10-22T09:18:46;3.17;;;0.80;;
74894;SDS011;63447;49.446;8.666;2022-10-22T09:21:32;3.90;;;1.52;;
74894;SDS011;63447;49.446;8.666;2022-10-22T09:29:12;2.35;;;0.70;;
74894;SDS011;63447;49.446;8.666;2022-10-22T09:31:44;3.42;;;0.63;;
74894;SDS011;63447;49.446;8.666;2022-10-22T09:34:14;2.97;;;0.80;;
74894;SDS011;63447;49.446;8.666;2022-10-22T09:36:40;3.13;;;0.77;;
74894;SDS011;63447;49.446;8.666;2022-10-22T09:39:14;2.15;;;0.50;;
74894;SDS011;63447;49.446;8.666;2022-10-22T09:41:47;2.42;;;0.70;;
74894;SDS011;63447;49.446;8.666;2022-10-22T09:44:16;2.45;;;0.75;;
74894;SDS011;63447;49.446;8.666;2022-10-22T09:46:42;3.22;;;0.90;;
74894;SDS011;63447;49.446;8.666;2022-10-22T09:49:10;4.18;;;0.80;;
74894;SDS011;63447;49.446;8.666;2022-10-22T09:51:57;4.18;;;0.68;;
74894;SDS011;63447;49.446;8.666;2022-10-22T09:54:36;2.75;;;0.80;;
74894;SDS011;63447;49.446;8.666;2022-10-22T09:59:41;3.35;;;0.77;;
74894;SDS011;63447;49.446;8.666;2022-10-22T10:04:39;2.43;;;0.60;;
74894;SDS011;63447;49.446;8.666;2022-10-22T10:07:14;4.00;;;0.77;;
74894;SDS011;63447;49.446;8.666;2022-10-22T10:09:41;3.13;;;0.80;;
74894;SDS011;63447;49.446;8.666;2022-10-22T10:17:49;2.72;;;0.77;;
74894;SDS011;63447;49.446;8.666;2022-10-22T10:20:26;3.10;;;0.80;;
74894;SDS011;63447;49.446;8.666;2022-10-22T10:23:18;2.50;;;0.82;;
74894;SDS011;63447;49.446;8.666;2022-10-22T10:26:03;4.38;;;1.35;;
74894;SDS011;63447;49.446;8.666;2022-10-22T10:28:57;3.22;;;0.93;;
74894;SDS011;63447;49.446;8.666;2022-10-22T10:34:35;5.10;;;1.25;;
74894;SDS011;63447;49.446;8.666;2022-10-22T10:42:45;2.42;;;0.70;;
74894;SDS011;63447;49.446;8.666;2022-10-22T10:45:23;3.60;;;0.73;;
74894;SDS011;63447;49.446;8.666;2022-10-22T10:56:43;2.72;;;0.80;;
74894;SDS011;63447;49.446;8.666;2022-10-22T10:59:28;3.72;;;1.08;;
74894;SDS011;63447;49.446;8.666;2022-10-22T11:07:51;2.13;;;0.60;;
74894;SDS011;63447;49.446;8.666;2022-10-22T11:12:52;3.92;;;0.82;;
74894;SDS011;63447;49.446;8.666;2022-10-22T11:15:32;4.07;;;0.80;;
74894;SDS011;63447;49.446;8.666;2022-10-22T11:21:09;4.22;;;0.73;;
74894;SDS011;63447;49.446;8.666;2022-10-22T11:24:01;3.15;;;1.02;;
74894;SDS011;63447;49.446;8.666;2022-10-22T11:26:48;4.55;;;0.85;;
74894;SDS011;63447;49.446;8.666;2022-10-22T11:29:20;3.83;;;1.10;;
74894;SDS011;63447;49.446;8.666;2022-10-22T11:31:49;4.78;;;1.00;;
74894;SDS011;63447;49.446;8.666;2022-10-22T11:34:19;4.72;;;1.13;;
74894;SDS011;63447;49.446;8.666;2022-10-22T11:36:46;2.53;;;0.75;;
74894;SDS011;63447;49.446;8.666;2022-10-22T11:42:03;2.58;;;0.75;;
74894;SDS011;63447;49.446;8.666;2022-10-22T11:44:30;3.38;;;0.80;;
74894;SDS011;63447;49.446;8.666;2022-10-22T11:47:22;4.65;;;0.90;;
74894;SDS011;63447;49.446;8.666;2022-10-22T11:54:56;6.68;;;1.90;;
74894;SDS011;63447;49.446;8.666;2022-10-22T11:57:26;4.25;;;1.55;;
74894;SDS011;63447;49.446;8.666;2022-10-22T11:59:59;3.70;;;1.00;;
74894;SDS011;63447;49.446;8.666;2022-10-22T12:02:29;3.47;;;0.80;;
74894;SDS011;63447;49.446;8.666;2022-10-22T12:10:19;2.80;;;0.90;;
74894;SDS011;63447;49.446;8.666;2022-10-22T12:13:04;4.32;;;0.65;;
74894;SDS011;63447;49.446;8.666;2022-10-22T12:15:45;3.47;;;0.80;;
74894;SDS011;63447;49.446;8.666;2022-10-22T12:18:14;5.63;;;1.20;;
74894;SDS011;63447;49.446;8.666;2022-10-22T12:20:40;3.15;;;0.75;;
74894;SDS011;63447;49.446;8.666;2022-10-22T12:23:08;3.67;;;0.77;;
74894;SDS011;63447;49.446;8.666;2022-10-22T12:25:35;3.53;;;0.88;;
74894;SDS011;63447;49.446;8.666;2022-10-22T12:28:02;3.40;;;0.85;;
74894;SDS011;63447;49.446;8.666;2022-10-22T12:30:31;3.50;;;1.05;;
74894;SDS011;63447;49.446;8.666;2022-10-22T12:33:02;3.22;;;0.80;;
74894;SDS011;63447;49.446;8.666;2022-10-22T12:35:33;4.75;;;1.10;;
74894;SDS011;63447;49.446;8.666;2022-10-22T12:38:19;4.93;;;1.15;;
74894;SDS011;63447;49.446;8.666;2022-10-22T12:40:49;4.28;;;0.93;;
74894;SDS011;63447;49.446;8.666;2022-10-22T12:43:19;3.67;;;0.80;;
74894;SDS011;63447;49.446;8.666;2022-10-22T12:45:52;4.32;;;1.17;;
74894;SDS011;63447;49.446;8.666;2022-10-22T12:48:31;4.03;;;0.93;;
74894;SDS011;63447;49.446;8.666;2022-10-22T12:51:02;3.75;;;0.88;;
74894;SDS011;63447;49.446;8.666;2022-10-22T12:56:11;4.15;;;0.70;;
74894;SDS011;63447;49.446;8.666;2022-10-22T12:58:40;6.97;;;1.33;;
74894;SDS011;63447;49.446;8.666;2022-10-22T13:01:11;3.13;;;1.00;;
74894;SDS011;63447;49.446;8.666;2022-10-22T13:03:45;6.43;;;0.93;;
74894;SDS011;63447;49.446;8.666;2022-10-22T13:08:53;4.25;;;1.00;;
74894;SDS011;63447;49.446;8.666;2022-10-22T13:11:19;6.05;;;1.10;;
74894;SDS011;63447;49.446;8.666;2022-10-22T13:13:49;4.70;;;0.80;;
74894;SDS011;63447;49.446;8.666;2022-10-22T13:16:21;5.90;;;1.13;;
74894;SDS011;63447;49.446;8.666;2022-10-22T13:18:51;3.05;;;0.80;;
74894;SDS011;63447;49.446;8.666;2022-10-22T13:23:53;4.45;;;1.05;;
74894;SDS011;63447;49.446;8.666;2022-10-22T13:26:32;5.45;;;1.00;;
74894;SDS011;63447;49.446;8.666;2022-10-22T13:29:00;5.50;;;1.33;;
74894;SDS011;63447;49.446;8.666;2022-10-22T13:31:27;3.65;;;1.30;;
74894;SDS011;63447;49.446;8.666;2022-10-22T13:34:05;5.10;;;1.38;;
74894;SDS011;63447;49.446;8.666;2022-10-22T13:36:33;5.07;;;1.25;;
74894;SDS011;63447;49.446;8.666;2022-10-22T13:39:00;4.60;;;0.95;;
74894;SDS011;63447;49.446;8.666;2022-10-22T13:41:30;4.43;;;1.00;;
74894;SDS011;63447;49.446;8.666;2022-10-22T13:43:58;3.63;;;0.80;;
74894;SDS011;63447;49.446;8.666;2022-10-22T13:46:25;4.05;;;1.08;;
74894;SDS011;63447;49.446;8.666;2022-10-22T13:48:52;4.38;;;1.10;;
74894;SDS011;63447;49.446;8.666;2022-10-22T13:53:49;5.03;;;1.33;;
74894;SDS011;63447;49.446;8.666;2022-10-22T13:56:19;5.68;;;1.50;;
74894;SDS011;63447;49.446;8.666;2022-10-22T13:58:46;6.95;;;1.50;;
74894;SDS011;63447;49.446;8.666;2022-10-22T14:01:25;4.82;;;1.23;;
74894;SDS011;63447;49.446;8.666;2022-10-22T14:03:57;6.47;;;1.27;;
74894;SDS011;63447;49.446;8.666;2022-10-22T14:06:28;5.10;;;1.00;;
74894;SDS011;63447;49.446;8.666;2022-10-22T14:08:57;4.68;;;0.93;;
74894;SDS011;63447;49.446;8.666;2022-10-22T14:11:25;5.15;;;1.45;;
74894;SDS011;63447;49.446;8.666;2022-10-22T14:13:55;3.53;;;1.20;;
74894;SDS011;63447;49.446;8.666;2022-10-22T14:16:25;4.18;;;1.23;;
74894;SDS011;63447;49.446;8.666;2022-10-22T14:18:53;3.63;;;0.80;;
74894;SDS011;63447;49.446;8.666;2022-10-22T14:21:19;5.28;;;1.10;;
74894;SDS011;63447;49.446;8.666;2022-10-22T14:23:52;4.63;;;0.90;;
74894;SDS011;63447;49.446;8.666;2022-10-22T14:26:21;3.08;;;0.70;;
74894;SDS011;63447;49.446;8.666;2022-10-22T14:28:48;7.28;;;1.10;;
74894;SDS011;63447;49.446;8.666;2022-10-22T14:31:14;3.38;;;0.90;;
74894;SDS011;63447;49.446;8.666;2022-10-22T14:33:42;4.10;;;0.90;;
74894;SDS011;63447;49.446;8.666;2022-10-22T14:36:10;2.50;;;0.73;;
74894;SDS011;63447;49.446;8.666;2022-10-22T14:38:42;6.50;;;0.85;;
74894;SDS011;63447;49.446;8.666;2022-10-22T14:41:13;7.07;;;1.00;;
74894;SDS011;63447;49.446;8.666;2022-10-22T14:43:43;3.88;;;0.82;;
74894;SDS011;63447;49.446;8.666;2022-10-22T14:46:10;6.60;;;1.00;;
74894;SDS011;63447;49.446;8.666;2022-10-22T14:48:39;5.55;;;1.30;;
74894;SDS011;63447;49.446;8.666;2022-10-22T14:51:11;4.72;;;1.33;;
74894;SDS011;63447;49.446;8.666;2022-10-22T14:53:41;5.05;;;1.25;;
74894;SDS011;63447;49.446;8.666;2022-10-22T14:56:11;3.80;;;1.50;;
74894;SDS011;63447;49.446;8.666;2022-10-22T14:58:42;4.57;;;1.30;;
74894;SDS011;63447;49.446;8.666;2022-10-22T15:01:10;6.40;;;0.90;;
74894;SDS011;63447;49.446;8.666;2022-10-22T15:03:35;4.80;;;1.00;;
74894;SDS011;63447;49.446;8.666;2022-10-22T15:06:01;4.57;;;1.30;;
74894;SDS011;63447;49.446;8.666;2022-10-22T15:08:26;5.68;;;1.50;;
74894;SDS011;63447;49.446;8.666;2022-10-22T15:13:31;6.07;;;1.30;;
74894;SDS011;63447;49.446;8.666;2022-10-22T15:15:59;4.18;;;1.13;;
74894;SDS011;63447;49.446;8.666;2022-10-22T15:18:32;6.07;;;1.60;;
74894;SDS011;63447;49.446;8.666;2022-10-22T15:21:00;6.78;;;1.30;;
74894;SDS011;63447;49.446;8.666;2022-10-22T15:23:27;5.05;;;1.27;;
74894;SDS011;63447;49.446;8.666;2022-10-22T15:25:58;4.53;;;1.30;;
74894;SDS011;63447;49.446;8.666;2022-10-22T15:28:25;4.07;;;1.15;;
74894;SDS011;63447;49.446;8.666;2022-10-22T15:30:54;5.90;;;1.33;;
74894;SDS011;63447;49.446;8.666;2022-10-22T15:33:21;5.75;;;1.10;;
74894;SDS011;63447;49.446;8.666;2022-10-22T15:35:50;5.75;;;1.00;;
74894;SDS011;63447;49.446;8.666;2022-10-22T15:38:15;4.22;;;1.10;;
74894;SDS011;63447;49.446;8.666;2022-10-22T15:40:43;3.70;;;0.88;;
74894;SDS011;63447;49.446;8.666;2022-10-22T15:43:12;4.43;;;1.25;;
74894;SDS011;63447;49.446;8.666;2022-10-22T15:45:37;3.78;;;0.80;;
74894;SDS011;63447;49.446;8.666;2022-10-22T15:48:06;4.90;;;1.00;;
74894;SDS011;63447;49.446;8.666;2022-10-22T15:50:31;4.65;;;1.15;;
74894;SDS011;63447;49.446;8.666;2022-10-22T15:53:00;5.05;;;1.20;;
74894;SDS011;63447;49.446;8.666;2022-10-22T15:55:28;5.60;;;1.30;;
74894;SDS011;63447;49.446;8.666;2022-10-22T15:57:53;4.27;;;1.00;;
74894;SDS011;63447;49.446;8.666;2022-10-22T16:00:22;4.60;;;1.33;;
74894;SDS011;63447;49.446;8.666;2022-10-22T16:02:49;4.70;;;1.30;;
74894;SDS011;63447;49.446;8.666;2022-10-22T16:05:14;7.20;;;1.60;;
74894;SDS011;63447;49.446;8.666;2022-10-22T16:07:40;8.27;;;1.95;;
74894;SDS011;63447;49.446;8.666;2022-10-22T16:10:09;6.10;;;1.77;;
74894;SDS011;63447;49.446;8.666;2022-10-22T16:12:38;7.60;;;1.70;;
74894;SDS011;63447;49.446;8.666;2022-10-22T16:15:04;6.65;;;1.33;;
74894;SDS011;63447;49.446;8.666;2022-10-22T16:17:33;4.55;;;1.33;;
74894;SDS011;63447;49.446;8.666;2022-10-22T16:20:00;6.53;;;1.50;;
74894;SDS011;63447;49.446;8.666;2022-10-22T16:22:30;6.70;;;2.10;;
74894;SDS011;63447;49.446;8.666;2022-10-22T16:24:55;8.85;;;2.00;;
74894;SDS011;63447;49.446;8.666;2022-10-22T16:27:25;7.15;;;1.58;;
74894;SDS011;63447;49.446;8.666;2022-10-22T16:29:51;7.63;;;1.52;;
74894;SDS011;63447;49.446;8.666;2022-10-22T16:32:19;5.33;;;1.63;;
74894;SDS011;63447;49.446;8.666;2022-10-22T16:34:47;6.13;;;1.42;;
74894;SDS011;63447;49.446;8.666;2022-10-22T16:37:17;7.35;;;1.83;;
74894;SDS011;63447;49.446;8.666;2022-10-22T16:39:42;6.00;;;2.15;;
74894;SDS011;63447;49.446;8.666;2022-10-22T16:42:10;6.22;;;2.00;;
74894;SDS011;63447;49.446;8.666;2022-10-22T16:44:35;7.00;;;2.10;;
74894;SDS011;63447;49.446;8.666;2022-10-22T16:47:01;6.27;;;1.83;;
74894;SDS011;63447;49.446;8.666;2022-10-22T16:49:28;6.10;;;1.65;;
74894;SDS011;63447;49.446;8.666;2022-10-22T16:51:58;4.97;;;1.83;;
74894;SDS011;63447;49.446;8.666;2022-10-22T16:54:26;6.05;;;1.60;;
74894;SDS011;63447;49.446;8.666;2022-10-22T16:56:51;6.13;;;1.70;;
74894;SDS011;63447;49.446;8.666;2022-10-22T16:59:16;7.13;;;1.70;;
74894;SDS011;63447;49.446;8.666;2022-10-22T17:01:44;6.32;;;1.42;;
74894;SDS011;63447;49.446;8.666;2022-10-22T17:04:12;6.37;;;1.77;;
74894;SDS011;63447;49.446;8.666;2022-10-22T17:06:43;6.88;;;2.15;;